Time;durP1;ratioP1;P1;durP2;ratioP2;P2;SDS_P1;SDS_P2;PMS_P1;PMS_P2;Temp;Humidity;BMP_temperature;BMP_pressure;BME280_temperature;BME280_humidity;BME280_pressure;Samples;Min_cycle;Max_cycle;Signal;HPM_P1;HPM_P2
2021/12/28 00:00:10;;;;;;;;;;;6.50;99.90;;;;;;5054283;28;19981;-75
2021/12/28 00:02:37;;;;;;;;;;;6.50;99.90;;;;;;5038499;28;19988;-76
2021/12/28 00:05:10;;;;;;;;;;;6.50;99.90;;;;;;5067909;28;20060;-76
2021/12/28 00:07:38;;;;;;;;;;;6.50;99.90;;;;;;5059010;28;20025;-76
2021/12/28 00:10:22;;;;;;;;;;;6.50;99.90;;;;;;5034360;28;19921;-74
2021/12/28 00:12:49;;;;;;;;;;;6.50;99.90;;;;;;5048899;28;20371;-75
2021/12/28 00:18:02;;;;;;;;;;;6.40;99.90;;;;;;5048134;28;19948;-75
2021/12/28 00:20:44;;;;;;;;;;;6.40;99.90;;;;;;5048359;28;19921;-75
2021/12/28 00:23:28;;;;;;;;;;;6.50;99.90;;;;;;5012246;28;19988;-76
2021/12/28 00:25:55;;;;;;;;;;;6.50;99.90;;;;;;4996578;28;19922;-74
2021/12/28 00:28:42;;;;;;;;;;;6.50;99.90;;;;;;5026544;28;19961;-75
2021/12/28 00:31:15;;;;;;;;;;;6.50;99.90;;;;;;5041782;28;19921;-74
2021/12/28 00:33:42;;;;;;;;;;;6.50;99.90;;;;;;5033049;28;19921;-74
2021/12/28 00:36:10;;;;;;;;;;;6.50;99.90;;;;;;5027065;28;19921;-75
2021/12/28 00:38:51;;;;;;;;;;;6.50;99.90;;;;;;5011815;28;19921;-75
2021/12/28 00:41:23;;;;;;;;;;;6.60;99.90;;;;;;5039425;28;19933;-75
2021/12/28 00:43:50;;;;;;;;;;;6.60;99.90;;;;;;5032891;28;19929;-76
2021/12/28 00:46:38;;;;;;;;;;;6.60;99.90;;;;;;5051382;28;19919;-75
2021/12/28 00:52:46;;;;;;;;;;;6.60;99.90;;;;;;5040932;28;20254;-75
2021/12/28 00:55:35;;;;;;;;;;;6.60;99.90;;;;;;5030849;28;19920;-75
2021/12/28 01:01:22;;;;;;;;;;;6.60;99.90;;;;;;5036104;28;19968;-76
2021/12/28 01:04:39;;;;;;;;;;;6.60;99.90;;;;;;5050492;28;19936;-75
2021/12/28 01:07:56;;;;;;;;;;;6.60;99.90;;;;;;5050392;28;19920;-75
2021/12/28 01:10:53;;;;;;;;;;;6.60;99.90;;;;;;5036649;28;19922;-75
2021/12/28 01:13:52;;;;;;;;;;;6.60;99.90;;;;;;5010484;28;19921;-75
2021/12/28 01:16:59;;;;;;;;;;;6.60;99.90;;;;;;4997001;28;19925;-77
2021/12/28 01:19:28;;;;;;;;;;;6.70;99.90;;;;;;5009165;28;20105;-77
2021/12/28 01:21:54;;;;;;;;;;;6.60;99.90;;;;;;5021047;28;19925;-77
2021/12/28 01:24:24;;;;;;;;;;;6.60;99.90;;;;;;5031996;28;20316;-77
2021/12/28 01:26:49;;;;;;;;;;;6.60;99.90;;;;;;5014827;28;19921;-77
2021/12/28 01:29:21;;;;;;;;;;;6.60;99.90;;;;;;5031832;28;19921;-77
2021/12/28 01:31:47;;;;;;;;;;;6.60;99.90;;;;;;5027866;28;19944;-76
2021/12/28 01:34:13;;;;;;;;;;;6.60;99.90;;;;;;4995340;28;19921;-77
2021/12/28 01:36:39;;;;;;;;;;;6.70;99.90;;;;;;5009079;28;19921;-77
2021/12/28 01:39:08;;;;;;;;;;;6.70;99.90;;;;;;5015237;28;20302;-76
2021/12/28 01:41:37;;;;;;;;;;;6.70;99.90;;;;;;5027615;28;19980;-76
2021/12/28 01:44:11;;;;;;;;;;;6.70;99.90;;;;;;5030750;28;20003;-76
2021/12/28 01:46:37;;;;;;;;;;;6.70;99.90;;;;;;5031455;28;19921;-76
2021/12/28 01:49:04;;;;;;;;;;;6.70;99.90;;;;;;5031471;28;19927;-77
2021/12/28 01:51:35;;;;;;;;;;;6.70;99.90;;;;;;5011553;28;20328;-77
2021/12/28 01:54:01;;;;;;;;;;;6.80;99.90;;;;;;5014703;28;19936;-77
2021/12/28 01:56:34;;;;;;;;;;;6.70;99.90;;;;;;5031374;28;20011;-77
2021/12/28 01:59:05;;;;;;;;;;;6.70;99.90;;;;;;5030782;28;20807;-77
2021/12/28 02:01:31;;;;;;;;;;;6.70;99.90;;;;;;5027527;28;19929;-76
2021/12/28 02:03:57;;;;;;;;;;;6.80;99.90;;;;;;5030532;28;19927;-76
2021/12/28 02:06:25;;;;;;;;;;;6.80;99.90;;;;;;5031012;28;20004;-76
2021/12/28 02:08:54;;;;;;;;;;;6.80;99.90;;;;;;5014385;28;19925;-76
2021/12/28 02:11:21;;;;;;;;;;;6.80;99.90;;;;;;4997140;28;19922;-76
2021/12/28 02:13:52;;;;;;;;;;;6.90;99.90;;;;;;4992139;28;19961;-77
2021/12/28 02:16:18;;;;;;;;;;;6.80;99.90;;;;;;5010709;28;19945;-76
2021/12/28 02:18:44;;;;;;;;;;;6.80;99.90;;;;;;5000309;28;19932;-76
2021/12/28 02:21:10;;;;;;;;;;;6.80;99.90;;;;;;4994997;28;19976;-78
2021/12/28 02:23:36;;;;;;;;;;;6.90;99.90;;;;;;5013745;28;19924;-75
2021/12/28 02:26:02;;;;;;;;;;;6.80;99.90;;;;;;5030725;28;19921;-76
2021/12/28 02:28:37;;;;;;;;;;;6.80;99.90;;;;;;4991992;28;19929;-76
2021/12/28 02:31:03;;;;;;;;;;;6.90;99.90;;;;;;5007935;28;19948;-76
2021/12/28 02:33:29;;;;;;;;;;;6.90;99.90;;;;;;5025077;28;20004;-75
2021/12/28 02:35:59;;;;;;;;;;;6.90;99.90;;;;;;5027332;28;19937;-77
2021/12/28 02:38:25;;;;;;;;;;;6.90;99.90;;;;;;5026436;28;19992;-76
2021/12/28 02:40:55;;;;;;;;;;;6.90;99.90;;;;;;4994635;28;19925;-76
2021/12/28 02:43:21;;;;;;;;;;;6.90;99.90;;;;;;5010424;28;19925;-76
2021/12/28 02:45:57;;;;;;;;;;;7.00;99.90;;;;;;5029121;28;20011;-76
2021/12/28 02:48:24;;;;;;;;;;;7.00;99.90;;;;;;5011280;28;20013;-77
2021/12/28 02:50:56;;;;;;;;;;;7.00;99.90;;;;;;5027538;28;19922;-76
2021/12/28 02:53:24;;;;;;;;;;;7.00;99.90;;;;;;5026658;28;19922;-76
2021/12/28 02:55:50;;;;;;;;;;;7.00;99.90;;;;;;5003736;28;19921;-76
2021/12/28 02:58:31;;;;;;;;;;;7.00;99.90;;;;;;5030188;28;19928;-76
2021/12/28 03:01:06;;;;;;;;;;;7.00;99.90;;;;;;5013976;28;20015;-76
2021/12/28 03:03:38;;;;;;;;;;;7.10;99.90;;;;;;5027192;28;19921;-76
2021/12/28 03:06:06;;;;;;;;;;;7.10;99.90;;;;;;5004256;28;20396;-76
2021/12/28 03:08:36;;;;;;;;;;;7.10;99.90;;;;;;5023171;28;20011;-76
2021/12/28 03:11:02;;;;;;;;;;;7.10;99.90;;;;;;4994274;28;20011;-76
2021/12/28 03:13:33;;;;;;;;;;;7.10;99.90;;;;;;5010759;28;19951;-76
2021/12/28 03:15:59;;;;;;;;;;;7.00;99.90;;;;;;5021739;28;19922;-76
2021/12/28 03:18:24;;;;;;;;;;;7.00;99.90;;;;;;5030794;28;19921;-76
2021/12/28 03:20:50;;;;;;;;;;;7.00;99.90;;;;;;4997995;28;19965;-76
2021/12/28 03:23:17;;;;;;;;;;;6.90;99.90;;;;;;5011723;28;19928;-78
2021/12/28 03:25:48;;;;;;;;;;;6.90;99.90;;;;;;5034748;28;20039;-76
2021/12/28 03:28:18;;;;;;;;;;;6.90;99.90;;;;;;5023268;28;19925;-76
2021/12/28 03:30:47;;;;;;;;;;;6.90;99.90;;;;;;5030798;28;19925;-76
2021/12/28 03:33:13;;;;;;;;;;;7.00;99.90;;;;;;5010758;28;20011;-76
2021/12/28 03:35:41;;;;;;;;;;;7.00;99.90;;;;;;5017450;28;20376;-77
2021/12/28 03:38:07;;;;;;;;;;;7.00;99.90;;;;;;5030792;28;19921;-76
2021/12/28 03:40:33;;;;;;;;;;;7.00;99.90;;;;;;4997565;28;19928;-76
2021/12/28 03:43:02;;;;;;;;;;;6.90;99.90;;;;;;4998733;28;19980;-77
2021/12/28 03:45:30;;;;;;;;;;;6.80;99.90;;;;;;5017587;28;19979;-76
2021/12/28 03:47:58;;;;;;;;;;;6.80;99.90;;;;;;5016458;28;19921;-76
2021/12/28 03:50:25;;;;;;;;;;;6.80;99.90;;;;;;4997722;28;19975;-76
2021/12/28 03:52:55;;;;;;;;;;;6.70;99.90;;;;;;5029947;28;19929;-76
2021/12/28 03:55:22;;;;;;;;;;;6.70;99.90;;;;;;5029933;28;19925;-76
2021/12/28 03:57:49;;;;;;;;;;;6.60;99.90;;;;;;5004469;28;19967;-76
2021/12/28 04:00:16;;;;;;;;;;;6.60;99.90;;;;;;5014318;28;19932;-76
2021/12/28 04:02:44;;;;;;;;;;;6.50;99.90;;;;;;5009188;28;19980;-76
2021/12/28 04:05:10;;;;;;;;;;;6.50;99.90;;;;;;5033125;28;19928;-76
2021/12/28 04:07:36;;;;;;;;;;;6.60;99.90;;;;;;5033370;28;19928;-76
2021/12/28 04:10:04;;;;;;;;;;;6.60;99.90;;;;;;5015749;28;19922;-76
2021/12/28 04:12:30;;;;;;;;;;;6.60;99.90;;;;;;5010670;28;19921;-76
2021/12/28 04:14:57;;;;;;;;;;;6.60;99.90;;;;;;5016353;28;20285;-76
2021/12/28 04:17:23;;;;;;;;;;;6.60;99.90;;;;;;5016928;28;20055;-76
2021/12/28 04:19:49;;;;;;;;;;;6.60;99.90;;;;;;5017942;28;19929;-76
2021/12/28 04:22:15;;;;;;;;;;;6.70;99.90;;;;;;5007912;28;19925;-76
2021/12/28 04:24:41;;;;;;;;;;;6.60;99.90;;;;;;5015905;28;19932;-76
2021/12/28 04:27:09;;;;;;;;;;;6.60;99.90;;;;;;5015191;28;19921;-76
2021/12/28 04:29:41;;;;;;;;;;;6.60;99.90;;;;;;5020128;28;19929;-76
2021/12/28 04:32:06;;;;;;;;;;;6.60;99.90;;;;;;5006730;28;19921;-76
2021/12/28 04:34:35;;;;;;;;;;;6.60;99.90;;;;;;5032856;28;19967;-76
2021/12/28 04:37:01;;;;;;;;;;;6.50;99.90;;;;;;5032700;28;19925;-77
2021/12/28 04:39:27;;;;;;;;;;;6.60;99.90;;;;;;5021033;28;20358;-76
2021/12/28 04:41:52;;;;;;;;;;;6.50;99.90;;;;;;5004236;28;19925;-76
2021/12/28 04:44:24;;;;;;;;;;;6.60;99.90;;;;;;5032529;28;19929;-78
2021/12/28 04:46:50;;;;;;;;;;;6.60;99.90;;;;;;5016213;28;20385;-76
2021/12/28 04:49:17;;;;;;;;;;;6.60;99.90;;;;;;5022980;28;20428;-76
2021/12/28 04:51:46;;;;;;;;;;;6.50;99.90;;;;;;5019445;28;19944;-77
2021/12/28 04:54:13;;;;;;;;;;;6.50;99.90;;;;;;5016147;28;20015;-76
2021/12/28 04:56:41;;;;;;;;;;;6.40;99.90;;;;;;5016645;28;19927;-77
2021/12/28 04:59:07;;;;;;;;;;;6.50;99.90;;;;;;5028206;28;19927;-76
2021/12/28 05:01:36;;;;;;;;;;;6.50;99.90;;;;;;5017260;28;19924;-76
2021/12/28 05:04:02;;;;;;;;;;;6.50;99.90;;;;;;5031468;28;20423;-76
2021/12/28 05:06:28;;;;;;;;;;;6.50;99.90;;;;;;5032224;28;19960;-76
2021/12/28 05:08:57;;;;;;;;;;;6.50;99.90;;;;;;5027148;28;19967;-76
2021/12/28 05:11:23;;;;;;;;;;;6.50;99.90;;;;;;5027568;28;19921;-77
2021/12/28 05:13:49;;;;;;;;;;;6.50;99.90;;;;;;5028736;28;19929;-76
2021/12/28 05:16:16;;;;;;;;;;;6.50;99.90;;;;;;5028596;28;19967;-76
2021/12/28 05:18:45;;;;;;;;;;;6.60;99.90;;;;;;5028426;28;19979;-76
2021/12/28 05:21:11;;;;;;;;;;;6.50;99.90;;;;;;4997802;28;19976;-77
2021/12/28 05:23:37;;;;;;;;;;;6.50;99.90;;;;;;5007888;28;20428;-76
2021/12/28 05:26:06;;;;;;;;;;;6.40;99.90;;;;;;5029220;28;19921;-76
2021/12/28 05:28:34;;;;;;;;;;;6.40;99.90;;;;;;5028049;28;20297;-76
2021/12/28 05:31:03;;;;;;;;;;;6.40;99.90;;;;;;4995474;28;20397;-76
2021/12/28 05:33:28;;;;;;;;;;;6.40;99.90;;;;;;5012120;28;19928;-76
2021/12/28 05:35:54;;;;;;;;;;;6.30;99.90;;;;;;5028911;28;19922;-76
2021/12/28 05:38:20;;;;;;;;;;;6.20;99.90;;;;;;5026468;28;19948;-76
2021/12/28 05:40:46;;;;;;;;;;;6.20;99.90;;;;;;4995705;28;19921;-77
2021/12/28 05:43:14;;;;;;;;;;;6.20;99.90;;;;;;5012639;28;20282;-76
2021/12/28 05:45:40;;;;;;;;;;;6.20;99.90;;;;;;5028595;28;19921;-75
2021/12/28 05:48:06;;;;;;;;;;;6.30;99.90;;;;;;4995736;28;19928;-76
2021/12/28 05:50:32;;;;;;;;;;;6.30;99.90;;;;;;5028363;28;20340;-76
2021/12/28 05:52:58;;;;;;;;;;;6.30;99.90;;;;;;4997128;28;19921;-77
2021/12/28 05:55:24;;;;;;;;;;;6.40;99.90;;;;;;5028126;28;19979;-76
2021/12/28 05:57:49;;;;;;;;;;;6.40;99.90;;;;;;5053061;22;19925;-80
2021/12/28 06:00:16;;;;;;;;;;;6.40;99.90;;;;;;5014887;28;20391;-80
2021/12/28 06:02:42;;;;;;;;;;;6.40;99.90;;;;;;5047203;28;19925;-80
2021/12/28 06:05:08;;;;;;;;;;;6.40;99.90;;;;;;5031219;28;19928;-79
2021/12/28 06:07:33;;;;;;;;;;;6.40;99.90;;;;;;5041298;28;20270;-79
2021/12/28 06:09:59;;;;;;;;;;;6.50;99.90;;;;;;5044526;28;19929;-80
2021/12/28 06:12:24;;;;;;;;;;;6.50;99.90;;;;;;5060487;28;19921;-80
2021/12/28 06:14:51;;;;;;;;;;;6.40;99.90;;;;;;5027682;28;19922;-80
2021/12/28 06:17:16;;;;;;;;;;;6.50;99.90;;;;;;5047973;28;19925;-80
2021/12/28 06:19:42;;;;;;;;;;;6.50;99.90;;;;;;5031320;28;20270;-80
2021/12/28 06:22:08;;;;;;;;;;;6.50;99.90;;;;;;5007657;28;19925;-80
2021/12/28 06:24:33;;;;;;;;;;;6.50;99.90;;;;;;5014328;28;19979;-80
2021/12/28 06:26:59;;;;;;;;;;;6.50;99.90;;;;;;5030869;28;20297;-80
2021/12/28 06:29:24;;;;;;;;;;;6.50;99.90;;;;;;5014486;28;19921;-79
2021/12/28 06:31:50;;;;;;;;;;;6.50;99.90;;;;;;5024221;28;20406;-80
2021/12/28 06:34:15;;;;;;;;;;;6.60;99.90;;;;;;5014646;28;19929;-82
2021/12/28 06:36:42;;;;;;;;;;;6.60;99.90;;;;;;5031302;28;20285;-82
2021/12/28 06:39:08;;;;;;;;;;;6.50;99.90;;;;;;5015121;28;19959;-82
2021/12/28 06:41:34;;;;;;;;;;;6.50;99.90;;;;;;5004361;28;19980;-82
2021/12/28 06:43:59;;;;;;;;;;;6.60;99.90;;;;;;5030830;28;20298;-83
2021/12/28 06:46:25;;;;;;;;;;;6.50;99.90;;;;;;5014238;28;19925;-81
2021/12/28 06:48:50;;;;;;;;;;;6.50;99.90;;;;;;5015737;28;20364;-80
2021/12/28 06:51:15;;;;;;;;;;;6.50;99.90;;;;;;5014152;28;20004;-80
2021/12/28 06:53:41;;;;;;;;;;;6.50;99.90;;;;;;5024753;28;19922;-80
2021/12/28 06:56:07;;;;;;;;;;;6.50;99.90;;;;;;5038907;28;19921;-80
2021/12/28 06:58:32;;;;;;;;;;;6.50;99.90;;;;;;5064701;28;19945;-80
2021/12/28 07:00:58;;;;;;;;;;;6.60;99.90;;;;;;5050995;28;19921;-80
2021/12/28 07:03:23;;;;;;;;;;;6.60;99.90;;;;;;5017352;28;19921;-80
2021/12/28 07:05:49;;;;;;;;;;;6.60;99.90;;;;;;5051521;28;20296;-79
2021/12/28 07:08:15;;;;;;;;;;;6.60;99.90;;;;;;5032918;28;19921;-80
2021/12/28 07:10:42;;;;;;;;;;;6.60;99.90;;;;;;4999226;28;20004;-80
2021/12/28 07:13:07;;;;;;;;;;;6.60;99.90;;;;;;5065277;28;19921;-80
2021/12/28 07:15:33;;;;;;;;;;;6.60;99.90;;;;;;5009929;28;19928;-78
2021/12/28 07:17:58;;;;;;;;;;;6.60;99.90;;;;;;5030994;28;19951;-80
2021/12/28 07:20:24;;;;;;;;;;;6.60;99.90;;;;;;5031162;28;20377;-78
2021/12/28 07:22:49;;;;;;;;;;;6.60;99.90;;;;;;5029684;28;19948;-80
2021/12/28 07:25:15;;;;;;;;;;;6.60;99.90;;;;;;5047115;28;20404;-80
2021/12/28 07:27:40;;;;;;;;;;;6.60;99.90;;;;;;5014006;28;20453;-80
2021/12/28 07:30:08;;;;;;;;;;;6.60;99.90;;;;;;5022754;28;19971;-79
2021/12/28 07:32:34;;;;;;;;;;;6.60;99.90;;;;;;4997609;28;19921;-80
2021/12/28 07:35:00;;;;;;;;;;;6.60;99.90;;;;;;5030883;28;20008;-81
2021/12/28 07:37:25;;;;;;;;;;;6.60;99.90;;;;;;5007661;28;20024;-81
2021/12/28 07:39:53;;;;;;;;;;;6.60;99.90;;;;;;5017829;28;19987;-81
2021/12/28 07:42:19;;;;;;;;;;;6.60;99.90;;;;;;5017318;28;20270;-81
2021/12/28 07:44:44;;;;;;;;;;;6.60;99.90;;;;;;5033160;28;20011;-81
2021/12/28 07:47:10;;;;;;;;;;;6.60;99.90;;;;;;5030445;28;19956;-81
2021/12/28 07:49:35;;;;;;;;;;;6.60;99.90;;;;;;5030862;28;20312;-81
2021/12/28 07:52:01;;;;;;;;;;;6.60;99.90;;;;;;5064045;28;19921;-80
2021/12/28 07:54:26;;;;;;;;;;;6.60;99.90;;;;;;5063538;28;19921;-81
2021/12/28 07:56:52;;;;;;;;;;;6.70;99.90;;;;;;5063043;28;20285;-83
2021/12/28 07:59:17;;;;;;;;;;;6.70;99.90;;;;;;5030448;28;19921;-82
2021/12/28 08:01:43;;;;;;;;;;;6.70;99.90;;;;;;5029742;28;19926;-82
2021/12/28 08:04:08;;;;;;;;;;;6.70;99.90;;;;;;5030172;28;20381;-81
2021/12/28 08:06:34;;;;;;;;;;;6.70;99.90;;;;;;5047511;28;20030;-81
2021/12/28 08:08:59;;;;;;;;;;;6.70;99.90;;;;;;5063266;28;19932;-81
2021/12/28 08:11:25;;;;;;;;;;;6.80;99.90;;;;;;5029916;28;20388;-80
2021/12/28 08:13:51;;;;;;;;;;;6.80;99.90;;;;;;5062833;28;20008;-81
2021/12/28 08:16:16;;;;;;;;;;;6.80;99.90;;;;;;5030035;28;20004;-81
2021/12/28 08:18:42;;;;;;;;;;;6.80;99.90;;;;;;5029966;28;20373;-80
2021/12/28 08:21:07;;;;;;;;;;;6.80;99.90;;;;;;5046770;28;19953;-81
2021/12/28 08:23:33;;;;;;;;;;;6.70;99.90;;;;;;5029742;28;19922;-81
2021/12/28 08:25:58;;;;;;;;;;;6.70;99.90;;;;;;5029847;28;19968;-81
2021/12/28 08:28:24;;;;;;;;;;;6.70;99.90;;;;;;5032742;28;20004;-82
2021/12/28 08:30:49;;;;;;;;;;;6.70;99.90;;;;;;5015916;28;20028;-82
2021/12/28 08:33:15;;;;;;;;;;;6.80;99.90;;;;;;5015960;28;19947;-81
2021/12/28 08:35:40;;;;;;;;;;;6.80;99.90;;;;;;5001997;28;19922;-81
2021/12/28 08:38:10;;;;;;;;;;;6.80;99.90;;;;;;5047438;28;19975;-82
2021/12/28 08:40:38;;;;;;;;;;;6.80;99.90;;;;;;5000116;28;19926;-83
2021/12/28 08:43:03;;;;;;;;;;;6.90;99.90;;;;;;5045719;28;19925;-84
2021/12/28 08:45:29;;;;;;;;;;;6.90;99.90;;;;;;5012991;28;19975;-84
2021/12/28 08:47:54;;;;;;;;;;;6.90;99.90;;;;;;5030732;28;19930;-82
2021/12/28 08:50:20;;;;;;;;;;;6.90;99.90;;;;;;5016194;28;19971;-85
2021/12/28 08:52:46;;;;;;;;;;;7.00;99.90;;;;;;5043864;28;20029;-84
2021/12/28 08:55:12;;;;;;;;;;;7.00;99.90;;;;;;5031492;28;20373;-85
2021/12/28 08:57:37;;;;;;;;;;;7.10;99.90;;;;;;5012984;28;19928;-83
2021/12/28 09:00:08;;;;;;;;;;;7.10;99.90;;;;;;5028430;28;19928;-84
2021/12/28 09:02:33;;;;;;;;;;;7.10;99.90;;;;;;5022668;28;20416;-86
2021/12/28 09:04:59;;;;;;;;;;;7.20;99.90;;;;;;5029065;28;19922;-88
2021/12/28 09:07:24;;;;;;;;;;;7.20;99.90;;;;;;5032011;28;19922;-86
2021/12/28 09:09:50;;;;;;;;;;;7.20;99.90;;;;;;5014155;28;19921;-83
2021/12/28 09:12:15;;;;;;;;;;;7.20;99.90;;;;;;5010196;28;19922;-83
2021/12/28 09:14:40;;;;;;;;;;;7.30;99.90;;;;;;5027646;28;19922;-83
2021/12/28 09:17:06;;;;;;;;;;;7.30;99.90;;;;;;5028933;28;20449;-83
2021/12/28 09:19:32;;;;;;;;;;;7.30;99.90;;;;;;5028983;28;20302;-83
2021/12/28 09:21:58;;;;;;;;;;;7.30;99.90;;;;;;5028922;28;19925;-84
2021/12/28 09:24:23;;;;;;;;;;;7.30;99.90;;;;;;5029197;28;19921;-83
2021/12/28 09:26:49;;;;;;;;;;;7.40;99.90;;;;;;5028750;28;19968;-83
2021/12/28 09:29:14;;;;;;;;;;;7.40;99.90;;;;;;5029127;28;19922;-84
2021/12/28 09:31:40;;;;;;;;;;;7.40;99.90;;;;;;5045310;28;19928;-83
2021/12/28 09:34:05;;;;;;;;;;;7.50;99.90;;;;;;5028796;28;20015;-84
2021/12/28 09:36:31;;;;;;;;;;;7.50;99.90;;;;;;5045496;28;20011;-84
2021/12/28 09:38:56;;;;;;;;;;;7.60;99.90;;;;;;5028469;28;19928;-83
2021/12/28 09:41:22;;;;;;;;;;;7.50;99.90;;;;;;5028282;28;19925;-84
2021/12/28 09:43:47;;;;;;;;;;;7.60;99.90;;;;;;5028742;28;20249;-84
2021/12/28 09:46:13;;;;;;;;;;;7.60;99.90;;;;;;5028587;28;19928;-84
2021/12/28 09:48:38;;;;;;;;;;;7.60;99.90;;;;;;5028482;28;19969;-84
2021/12/28 09:51:05;;;;;;;;;;;7.60;99.90;;;;;;5044769;28;19928;-84
2021/12/28 09:53:30;;;;;;;;;;;7.60;99.90;;;;;;5045004;28;19972;-84
2021/12/28 09:55:56;;;;;;;;;;;7.70;99.90;;;;;;5028182;28;19928;-84
2021/12/28 09:58:21;;;;;;;;;;;7.70;99.90;;;;;;5028209;28;19975;-84
2021/12/28 10:00:47;;;;;;;;;;;7.70;99.90;;;;;;5028633;28;19930;-84
2021/12/28 10:03:16;;;;;;;;;;;7.70;99.90;;;;;;5027960;28;19934;-84
2021/12/28 10:05:41;;;;;;;;;;;7.80;99.90;;;;;;5028253;28;19941;-84
2021/12/28 10:08:07;;;;;;;;;;;7.80;99.90;;;;;;5044387;28;19922;-84
2021/12/28 10:10:35;;;;;;;;;;;7.80;99.90;;;;;;5028470;28;19926;-84
2021/12/28 10:13:06;;;;;;;;;;;7.90;99.90;;;;;;5027891;28;19995;-84
2021/12/28 10:15:33;;;;;;;;;;;7.90;99.90;;;;;;5028099;28;19921;-84
2021/12/28 10:18:00;;;;;;;;;;;7.90;99.90;;;;;;5027621;28;19925;-84
2021/12/28 10:20:27;;;;;;;;;;;7.90;99.90;;;;;;5027893;28;20404;-84
2021/12/28 10:22:58;;;;;;;;;;;7.90;99.90;;;;;;5044202;28;19925;-84
2021/12/28 10:25:32;;;;;;;;;;;8.00;99.90;;;;;;5027855;28;19921;-84
2021/12/28 10:27:59;;;;;;;;;;;8.00;99.90;;;;;;5027947;28;20381;-84
2021/12/28 10:30:26;;;;;;;;;;;8.10;99.90;;;;;;5027842;28;20000;-83
2021/12/28 10:32:59;;;;;;;;;;;8.10;99.90;;;;;;5027762;28;20224;-84
2021/12/28 10:35:29;;;;;;;;;;;8.10;99.90;;;;;;5027714;28;20317;-84
2021/12/28 10:37:59;;;;;;;;;;;8.10;99.90;;;;;;5027653;28;19922;-84
2021/12/28 10:40:25;;;;;;;;;;;8.10;99.90;;;;;;5027724;28;20532;-84
2021/12/28 10:42:53;;;;;;;;;;;8.20;99.90;;;;;;5027425;28;20024;-84
2021/12/28 10:45:21;;;;;;;;;;;8.20;99.90;;;;;;5029855;28;19921;-84
2021/12/28 10:47:47;;;;;;;;;;;8.20;99.90;;;;;;5010958;28;20004;-84
2021/12/28 10:50:20;;;;;;;;;;;8.20;99.90;;;;;;5003445;28;19960;-83
2021/12/28 10:52:50;;;;;;;;;;;8.30;99.90;;;;;;5014253;28;19925;-82
2021/12/28 10:55:23;;;;;;;;;;;8.30;99.90;;;;;;5013918;28;20371;-81
2021/12/28 10:57:49;;;;;;;;;;;8.30;99.90;;;;;;5002822;28;19922;-81
2021/12/28 11:00:25;;;;;;;;;;;8.30;99.90;;;;;;5026688;28;19948;-81
2021/12/28 11:02:52;;;;;;;;;;;8.30;99.90;;;;;;5042598;28;19931;-82
2021/12/28 11:05:34;;;;;;;;;;;8.30;99.90;;;;;;5028777;28;19921;-82
2021/12/28 11:07:59;;;;;;;;;;;8.40;99.90;;;;;;5044217;28;20373;-81
2021/12/28 11:10:28;;;;;;;;;;;8.40;99.90;;;;;;4993976;28;20028;-81
2021/12/28 11:12:54;;;;;;;;;;;8.40;99.90;;;;;;5010224;28;19941;-82
2021/12/28 11:15:21;;;;;;;;;;;8.40;99.90;;;;;;5044202;28;19928;-81
2021/12/28 11:17:47;;;;;;;;;;;8.40;99.90;;;;;;4992544;28;19937;-83
2021/12/28 11:20:12;;;;;;;;;;;8.40;99.90;;;;;;4993927;28;19922;-79
2021/12/28 11:22:38;;;;;;;;;;;8.50;99.90;;;;;;5027090;28;20016;-83
2021/12/28 11:25:16;;;;;;;;;;;8.50;99.90;;;;;;5027664;28;20386;-82
2021/12/28 11:27:41;;;;;;;;;;;8.50;99.90;;;;;;5011822;28;19972;-83
2021/12/28 11:30:11;;;;;;;;;;;8.50;99.90;;;;;;4997476;28;19987;-82
2021/12/28 11:32:36;;;;;;;;;;;8.50;99.90;;;;;;5033339;28;19921;-82
2021/12/28 11:35:02;;;;;;;;;;;8.50;99.90;;;;;;4994337;28;19979;-82
2021/12/28 11:37:28;;;;;;;;;;;8.50;99.90;;;;;;5028978;28;20296;-82
2021/12/28 11:39:56;;;;;;;;;;;8.50;99.90;;;;;;5030704;28;20001;-82
2021/12/28 11:42:22;;;;;;;;;;;8.50;99.90;;;;;;5029283;28;19930;-83
2021/12/28 11:44:48;;;;;;;;;;;8.50;99.90;;;;;;5029179;28;19929;-81
2021/12/28 11:47:15;;;;;;;;;;;8.50;99.90;;;;;;5030489;28;19922;-83
2021/12/28 11:49:41;;;;;;;;;;;8.60;99.90;;;;;;4996858;28;19929;-80
2021/12/28 11:52:08;;;;;;;;;;;8.60;99.90;;;;;;5046183;28;19921;-81
2021/12/28 11:54:35;;;;;;;;;;;8.60;99.90;;;;;;5045269;28;19921;-80
2021/12/28 11:57:08;;;;;;;;;;;8.50;99.90;;;;;;5028751;28;20397;-80
2021/12/28 11:59:33;;;;;;;;;;;8.60;99.90;;;;;;5045971;28;19975;-80
2021/12/28 12:02:06;;;;;;;;;;;8.60;99.90;;;;;;5029720;28;19926;-80
2021/12/28 12:04:34;;;;;;;;;;;8.60;99.90;;;;;;5062827;28;19921;-81
2021/12/28 12:07:01;;;;;;;;;;;8.60;99.90;;;;;;5027883;28;19940;-80
2021/12/28 12:09:27;;;;;;;;;;;8.60;99.90;;;;;;5029451;28;20449;-80
2021/12/28 12:12:08;;;;;;;;;;;8.70;99.90;;;;;;5029262;28;20021;-80
2021/12/28 12:14:52;;;;;;;;;;;8.70;99.90;;;;;;5014403;28;19996;-81
2021/12/28 12:17:24;;;;;;;;;;;8.70;99.90;;;;;;5027435;28;19921;-80
2021/12/28 12:19:49;;;;;;;;;;;8.70;99.90;;;;;;5012332;28;20418;-80
2021/12/28 12:22:30;;;;;;;;;;;8.70;99.90;;;;;;5024480;28;19929;-80
2021/12/28 12:25:07;;;;;;;;;;;8.80;99.90;;;;;;5030418;28;19932;-80
2021/12/28 12:27:51;;;;;;;;;;;8.80;99.90;;;;;;5044178;28;19928;-86
2021/12/28 12:30:17;;;;;;;;;;;8.80;99.90;;;;;;4997308;28;19964;-87
2021/12/28 12:33:01;;;;;;;;;;;8.90;99.90;;;;;;4997648;28;19973;-83
2021/12/28 12:35:34;;;;;;;;;;;8.90;99.90;;;;;;5030359;28;20308;-89
2021/12/28 12:38:02;;;;;;;;;;;8.90;99.90;;;;;;4997242;28;19928;-89
2021/12/28 12:40:46;;;;;;;;;;;8.90;99.90;;;;;;4998062;28;20313;-89
2021/12/28 12:43:12;;;;;;;;;;;8.90;99.90;;;;;;5029231;28;19969;-89
2021/12/28 12:45:50;;;;;;;;;;;8.90;99.90;;;;;;5030086;28;20016;-89
2021/12/28 12:48:35;;;;;;;;;;;8.80;99.90;;;;;;5029727;28;20389;-90
2021/12/28 12:51:39;;;;;;;;;;;8.90;99.90;;;;;;5029783;28;19928;-89
2021/12/28 12:54:16;;;;;;;;;;;8.80;99.90;;;;;;5030345;28;19925;-89
2021/12/28 12:56:51;;;;;;;;;;;8.90;99.90;;;;;;5030266;28;20390;-89
2021/12/28 12:59:16;;;;;;;;;;;8.90;99.90;;;;;;5030011;28;20409;-89
2021/12/28 13:01:42;;;;;;;;;;;8.80;99.90;;;;;;5029718;28;19926;-88
2021/12/28 13:04:26;;;;;;;;;;;8.80;99.90;;;;;;5029819;28;19922;-89
2021/12/28 13:07:00;;;;;;;;;;;8.80;99.90;;;;;;5029856;28;19922;-89
2021/12/28 13:09:32;;;;;;;;;;;8.80;99.90;;;;;;5030006;28;19921;-89
2021/12/28 13:12:27;;;;;;;;;;;8.80;99.90;;;;;;5029830;28;19921;-91
2021/12/28 13:15:08;;;;;;;;;;;8.80;99.90;;;;;;5026221;28;19929;-89
2021/12/28 13:24:13;;;;;;;;;;;8.80;99.90;;;;;;5003585;28;19930;-90
2021/12/28 13:26:48;;;;;;;;;;;8.80;99.90;;;;;;5029485;28;20336;-87
2021/12/28 13:29:43;;;;;;;;;;;8.80;99.90;;;;;;5028901;28;20378;-89
2021/12/28 13:32:11;;;;;;;;;;;8.80;99.90;;;;;;5062782;28;20365;-89
2021/12/28 13:34:59;;;;;;;;;;;8.80;99.90;;;;;;5028891;28;19954;-88
2021/12/28 13:37:28;;;;;;;;;;;8.80;99.90;;;;;;5028898;28;19972;-89
2021/12/28 13:40:40;;;;;;;;;;;;;;;;;;;;;
2021/12/28 13:47:13;;;;;;;;;;;8.70;99.90;;;;;;5011387;28;19919;-91
2021/12/28 13:50:04;;;;;;;;;;;8.70;99.90;;;;;;4978842;28;20374;-89
2021/12/28 13:53:12;;;;;;;;;;;8.70;99.90;;;;;;5011140;28;19929;-90
2021/12/28 13:55:38;;;;;;;;;;;8.70;99.90;;;;;;5011165;28;19928;-90
2021/12/28 13:58:04;;;;;;;;;;;8.70;99.90;;;;;;4978198;28;19922;-89
2021/12/28 14:00:32;;;;;;;;;;;8.70;99.90;;;;;;4986947;28;19922;-87
2021/12/28 14:03:00;;;;;;;;;;;8.60;99.90;;;;;;5028187;28;19980;-89
2021/12/28 14:05:26;;;;;;;;;;;8.50;99.90;;;;;;5044925;28;19925;-87
2021/12/28 14:07:52;;;;;;;;;;;8.50;99.90;;;;;;5044411;28;19928;-87
2021/12/28 14:10:19;;;;;;;;;;;8.40;99.90;;;;;;5028178;28;20024;-87
2021/12/28 14:13:04;;;;;;;;;;;8.30;99.90;;;;;;5028266;28;19922;-88
2021/12/28 14:15:30;;;;;;;;;;;8.20;99.90;;;;;;5028571;28;19925;-88
2021/12/28 14:17:56;;;;;;;;;;;8.10;99.90;;;;;;5028360;28;19929;-88
2021/12/28 14:20:28;;;;;;;;;;;8.10;99.90;;;;;;5028202;28;20320;-89
2021/12/28 14:22:54;;;;;;;;;;;8.00;99.90;;;;;;5027702;28;19926;-88
2021/12/28 14:25:20;;;;;;;;;;;7.90;99.90;;;;;;5044759;28;20397;-89
2021/12/28 14:27:53;;;;;;;;;;;7.90;99.90;;;;;;5027922;28;19976;-89
2021/12/28 14:30:19;;;;;;;;;;;7.80;99.90;;;;;;5028193;28;19922;-88
2021/12/28 14:32:46;;;;;;;;;;;7.80;99.90;;;;;;5027585;28;19928;-89
2021/12/28 14:35:13;;;;;;;;;;;7.70;99.90;;;;;;5027762;28;20551;-88
2021/12/28 14:37:39;;;;;;;;;;;7.70;99.90;;;;;;5027779;28;19925;-89
2021/12/28 14:40:16;;;;;;;;;;;7.70;99.90;;;;;;5027995;28;19922;-89
2021/12/28 14:42:42;;;;;;;;;;;7.60;99.90;;;;;;5027639;28;19984;-89
2021/12/28 14:45:15;;;;;;;;;;;7.60;99.90;;;;;;5027958;28;19921;-88
2021/12/28 14:47:41;;;;;;;;;;;7.60;99.90;;;;;;5026774;28;19925;-89
2021/12/28 14:50:18;;;;;;;;;;;7.60;99.90;;;;;;5027947;28;19929;-88
2021/12/28 14:52:45;;;;;;;;;;;7.60;99.90;;;;;;5027711;28;20274;-88
2021/12/28 14:55:30;;;;;;;;;;;7.60;99.90;;;;;;4994822;28;19921;-88
2021/12/28 14:58:00;;;;;;;;;;;7.60;99.90;;;;;;5011054;28;19933;-84
2021/12/28 15:00:29;;;;;;;;;;;7.60;99.90;;;;;;5027558;28;19969;-84
2021/12/28 15:02:56;;;;;;;;;;;7.60;99.90;;;;;;5043369;28;19979;-85